sensor_id;sensor_type;location;lat;lon;timestamp;temperature;humidity
67817;DHT22;54614;47.576;7.524;2023-07-22T00:01:02;26.20;60.60
67817;DHT22;54614;47.576;7.524;2023-07-22T00:03:28;26.20;60.50
67817;DHT22;54614;47.576;7.524;2023-07-22T00:06:06;26.20;60.60
67817;DHT22;54614;47.576;7.524;2023-07-22T00:08:34;26.20;60.50
67817;DHT22;54614;47.576;7.524;2023-07-22T00:11:01;26.20;60.60
67817;DHT22;54614;47.576;7.524;2023-07-22T00:13:27;26.20;60.50
67817;DHT22;54614;47.576;7.524;2023-07-22T00:15:56;26.20;61.30
67817;DHT22;54614;47.576;7.524;2023-07-22T00:18:22;26.20;60.60
67817;DHT22;54614;47.576;7.524;2023-07-22T00:20:49;26.20;60.50
67817;DHT22;54614;47.576;7.524;2023-07-22T00:23:16;26.20;60.50
67817;DHT22;54614;47.576;7.524;2023-07-22T00:25:42;26.20;60.50
67817;DHT22;54614;47.576;7.524;2023-07-22T00:28:08;26.20;60.50
67817;DHT22;54614;47.576;7.524;2023-07-22T00:30:34;26.20;60.50
67817;DHT22;54614;47.576;7.524;2023-07-22T00:33:00;26.20;60.50
67817;DHT22;54614;47.576;7.524;2023-07-22T00:35:26;26.20;60.50
67817;DHT22;54614;47.576;7.524;2023-07-22T00:37:52;26.20;60.50
67817;DHT22;54614;47.576;7.524;2023-07-22T00:40:18;26.20;60.50
67817;DHT22;54614;47.576;7.524;2023-07-22T00:42:44;26.10;60.50
67817;DHT22;54614;47.576;7.524;2023-07-22T00:45:10;26.10;60.30
67817;DHT22;54614;47.576;7.524;2023-07-22T00:47:36;26.10;60.40
67817;DHT22;54614;47.576;7.524;2023-07-22T00:50:04;26.20;60.40
67817;DHT22;54614;47.576;7.524;2023-07-22T00:52:32;26.10;60.30
67817;DHT22;54614;47.576;7.524;2023-07-22T00:55:02;26.10;60.30
67817;DHT22;54614;47.576;7.524;2023-07-22T00:57:28;26.10;61.00
67817;DHT22;54614;47.576;7.524;2023-07-22T00:59:54;26.10;60.30
67817;DHT22;54614;47.576;7.524;2023-07-22T01:02:20;26.10;60.30
67817;DHT22;54614;47.576;7.524;2023-07-22T01:04:48;26.10;60.30
67817;DHT22;54614;47.576;7.524;2023-07-22T01:07:15;26.10;60.30
67817;DHT22;54614;47.576;7.524;2023-07-22T01:09:42;26.10;60.30
67817;DHT22;54614;47.576;7.524;2023-07-22T01:12:10;26.10;60.30
67817;DHT22;54614;47.576;7.524;2023-07-22T01:14:38;26.10;60.30
67817;DHT22;54614;47.576;7.524;2023-07-22T01:17:07;26.10;60.20
67817;DHT22;54614;47.576;7.524;2023-07-22T01:19:35;26.10;60.30
67817;DHT22;54614;47.576;7.524;2023-07-22T01:22:04;26.10;60.30
67817;DHT22;54614;47.576;7.524;2023-07-22T01:24:34;26.10;60.30
67817;DHT22;54614;47.576;7.524;2023-07-22T01:27:00;26.10;60.30
67817;DHT22;54614;47.576;7.524;2023-07-22T01:29:26;26.10;60.20
67817;DHT22;54614;47.576;7.524;2023-07-22T01:31:53;26.10;60.10
67817;DHT22;54614;47.576;7.524;2023-07-22T01:34:20;26.10;60.20
67817;DHT22;54614;47.576;7.524;2023-07-22T01:36:48;26.10;60.20
67817;DHT22;54614;47.576;7.524;2023-07-22T01:39:15;26.00;60.10
67817;DHT22;54614;47.576;7.524;2023-07-22T01:41:42;26.10;60.10
67817;DHT22;54614;47.576;7.524;2023-07-22T01:44:08;26.10;60.20
67817;DHT22;54614;47.576;7.524;2023-07-22T01:46:34;26.10;60.30
67817;DHT22;54614;47.576;7.524;2023-07-22T01:49:03;26.00;60.10
67817;DHT22;54614;47.576;7.524;2023-07-22T01:51:32;26.00;60.10
67817;DHT22;54614;47.576;7.524;2023-07-22T01:53:57;26.00;60.10
67817;DHT22;54614;47.576;7.524;2023-07-22T01:56:23;26.00;60.10
67817;DHT22;54614;47.576;7.524;2023-07-22T01:58:50;26.00;60.10
67817;DHT22;54614;47.576;7.524;2023-07-22T02:01:16;26.00;60.10
67817;DHT22;54614;47.576;7.524;2023-07-22T02:03:42;26.00;60.10
67817;DHT22;54614;47.576;7.524;2023-07-22T02:06:08;26.00;60.20
67817;DHT22;54614;47.576;7.524;2023-07-22T02:08:34;26.00;60.10
67817;DHT22;54614;47.576;7.524;2023-07-22T02:11:06;26.00;60.20
67817;DHT22;54614;47.576;7.524;2023-07-22T02:13:34;26.00;60.10
67817;DHT22;54614;47.576;7.524;2023-07-22T02:16:01;26.00;60.10
67817;DHT22;54614;47.576;7.524;2023-07-22T02:18:28;26.00;60.00
67817;DHT22;54614;47.576;7.524;2023-07-22T02:20:55;26.00;60.10
67817;DHT22;54614;47.576;7.524;2023-07-22T02:23:23;26.00;60.00
67817;DHT22;54614;47.576;7.524;2023-07-22T02:25:53;26.00;60.10
67817;DHT22;54614;47.576;7.524;2023-07-22T02:28:21;26.00;60.10
67817;DHT22;54614;47.576;7.524;2023-07-22T02:30:52;26.00;60.00
67817;DHT22;54614;47.576;7.524;2023-07-22T02:33:19;26.00;60.10
67817;DHT22;54614;47.576;7.524;2023-07-22T02:35:46;25.90;60.00
67817;DHT22;54614;47.576;7.524;2023-07-22T02:38:13;26.00;60.10
67817;DHT22;54614;47.576;7.524;2023-07-22T02:40:40;25.90;60.00
67817;DHT22;54614;47.576;7.524;2023-07-22T02:43:06;25.90;60.00
67817;DHT22;54614;47.576;7.524;2023-07-22T02:45:33;25.90;60.00
67817;DHT22;54614;47.576;7.524;2023-07-22T02:47:59;25.90;60.00
67817;DHT22;54614;47.576;7.524;2023-07-22T02:50:25;25.90;59.90
67817;DHT22;54614;47.576;7.524;2023-07-22T02:52:51;25.90;60.00
67817;DHT22;54614;47.576;7.524;2023-07-22T02:55:17;25.90;59.90
67817;DHT22;54614;47.576;7.524;2023-07-22T02:57:44;25.90;60.00
67817;DHT22;54614;47.576;7.524;2023-07-22T03:00:12;25.90;59.90
67817;DHT22;54614;47.576;7.524;2023-07-22T03:02:40;25.90;60.00
67817;DHT22;54614;47.576;7.524;2023-07-22T03:05:07;25.90;59.90
67817;DHT22;54614;47.576;7.524;2023-07-22T03:07:40;25.90;59.90
67817;DHT22;54614;47.576;7.524;2023-07-22T03:10:06;25.90;59.90
67817;DHT22;54614;47.576;7.524;2023-07-22T03:12:34;25.90;59.90
67817;DHT22;54614;47.576;7.524;2023-07-22T03:15:02;25.90;59.90
67817;DHT22;54614;47.576;7.524;2023-07-22T03:17:29;25.90;59.90
67817;DHT22;54614;47.576;7.524;2023-07-22T03:19:55;25.90;59.90
67817;DHT22;54614;47.576;7.524;2023-07-22T03:22:21;25.90;59.90
67817;DHT22;54614;47.576;7.524;2023-07-22T03:24:47;25.90;59.90
67817;DHT22;54614;47.576;7.524;2023-07-22T03:27:13;25.90;59.90
67817;DHT22;54614;47.576;7.524;2023-07-22T03:29:40;25.90;59.90
67817;DHT22;54614;47.576;7.524;2023-07-22T03:32:07;25.90;59.80
67817;DHT22;54614;47.576;7.524;2023-07-22T03:34:34;25.90;59.90
67817;DHT22;54614;47.576;7.524;2023-07-22T03:37:00;25.90;59.90
67817;DHT22;54614;47.576;7.524;2023-07-22T03:39:26;25.90;59.80
67817;DHT22;54614;47.576;7.524;2023-07-22T03:41:52;25.90;59.80
67817;DHT22;54614;47.576;7.524;2023-07-22T03:44:18;25.90;59.80
67817;DHT22;54614;47.576;7.524;2023-07-22T03:46:43;25.80;59.70
67817;DHT22;54614;47.576;7.524;2023-07-22T03:49:09;25.80;59.70
67817;DHT22;54614;47.576;7.524;2023-07-22T03:51:35;25.90;59.80
67817;DHT22;54614;47.576;7.524;2023-07-22T03:54:01;25.90;59.70
67817;DHT22;54614;47.576;7.524;2023-07-22T03:56:26;25.80;59.70
67817;DHT22;54614;47.576;7.524;2023-07-22T03:58:52;25.80;59.70
67817;DHT22;54614;47.576;7.524;2023-07-22T04:01:18;25.80;59.70
67817;DHT22;54614;47.576;7.524;2023-07-22T04:03:45;25.80;59.70
67817;DHT22;54614;47.576;7.524;2023-07-22T04:06:11;25.80;59.80
67817;DHT22;54614;47.576;7.524;2023-07-22T04:08:36;25.80;59.70
67817;DHT22;54614;47.576;7.524;2023-07-22T04:11:03;25.80;59.70
67817;DHT22;54614;47.576;7.524;2023-07-22T04:13:29;25.80;59.70
67817;DHT22;54614;47.576;7.524;2023-07-22T04:15:55;25.80;59.70
67817;DHT22;54614;47.576;7.524;2023-07-22T04:18:21;25.80;59.60
67817;DHT22;54614;47.576;7.524;2023-07-22T04:20:47;25.80;59.70
67817;DHT22;54614;47.576;7.524;2023-07-22T04:23:16;25.80;59.70
67817;DHT22;54614;47.576;7.524;2023-07-22T04:25:45;25.80;59.60
67817;DHT22;54614;47.576;7.524;2023-07-22T04:28:11;25.80;59.60
67817;DHT22;54614;47.576;7.524;2023-07-22T04:30:38;25.80;59.60
67817;DHT22;54614;47.576;7.524;2023-07-22T04:33:05;25.80;59.50
67817;DHT22;54614;47.576;7.524;2023-07-22T04:35:40;25.80;59.60
67817;DHT22;54614;47.576;7.524;2023-07-22T04:38:06;25.80;59.60
67817;DHT22;54614;47.576;7.524;2023-07-22T04:40:32;25.80;59.60
67817;DHT22;54614;47.576;7.524;2023-07-22T04:42:58;25.80;59.60
67817;DHT22;54614;47.576;7.524;2023-07-22T04:45:24;25.80;59.60
67817;DHT22;54614;47.576;7.524;2023-07-22T04:47:50;25.80;59.50
67817;DHT22;54614;47.576;7.524;2023-07-22T04:50:16;25.80;59.50
67817;DHT22;54614;47.576;7.524;2023-07-22T04:52:46;25.80;59.50
67817;DHT22;54614;47.576;7.524;2023-07-22T04:55:14;25.70;59.50
67817;DHT22;54614;47.576;7.524;2023-07-22T04:57:41;25.70;59.50
67817;DHT22;54614;47.576;7.524;2023-07-22T05:00:11;25.70;59.50
67817;DHT22;54614;47.576;7.524;2023-07-22T05:02:42;25.70;59.50
67817;DHT22;54614;47.576;7.524;2023-07-22T05:05:12;25.70;59.40
67817;DHT22;54614;47.576;7.524;2023-07-22T05:07:38;25.80;59.50
67817;DHT22;54614;47.576;7.524;2023-07-22T05:10:04;25.70;59.50
67817;DHT22;54614;47.576;7.524;2023-07-22T05:12:32;25.70;59.50
67817;DHT22;54614;47.576;7.524;2023-07-22T05:14:58;25.70;59.50
67817;DHT22;54614;47.576;7.524;2023-07-22T05:17:24;25.70;59.50
67817;DHT22;54614;47.576;7.524;2023-07-22T05:19:51;25.70;59.50
67817;DHT22;54614;47.576;7.524;2023-07-22T05:22:16;25.80;59.50
67817;DHT22;54614;47.576;7.524;2023-07-22T05:24:42;25.80;59.40
67817;DHT22;54614;47.576;7.524;2023-07-22T05:27:08;25.80;59.50
67817;DHT22;54614;47.576;7.524;2023-07-22T05:29:34;25.80;59.50
67817;DHT22;54614;47.576;7.524;2023-07-22T05:32:00;25.80;59.50
67817;DHT22;54614;47.576;7.524;2023-07-22T05:34:25;25.80;59.50
67817;DHT22;54614;47.576;7.524;2023-07-22T05:36:51;25.80;59.50
67817;DHT22;54614;47.576;7.524;2023-07-22T05:39:17;25.80;59.60
67817;DHT22;54614;47.576;7.524;2023-07-22T05:41:44;25.80;59.60
67817;DHT22;54614;47.576;7.524;2023-07-22T05:44:10;25.80;59.70
67817;DHT22;54614;47.576;7.524;2023-07-22T05:46:35;25.80;59.60
67817;DHT22;54614;47.576;7.524;2023-07-22T05:49:01;25.80;59.70
67817;DHT22;54614;47.576;7.524;2023-07-22T05:51:27;25.80;59.70
67817;DHT22;54614;47.576;7.524;2023-07-22T05:53:52;25.80;59.70
67817;DHT22;54614;47.576;7.524;2023-07-22T05:56:18;25.80;59.70
67817;DHT22;54614;47.576;7.524;2023-07-22T05:58:44;25.80;59.70
67817;DHT22;54614;47.576;7.524;2023-07-22T06:01:10;25.90;59.70
67817;DHT22;54614;47.576;7.524;2023-07-22T06:03:37;25.80;59.70
67817;DHT22;54614;47.576;7.524;2023-07-22T06:06:03;25.90;59.70
67817;DHT22;54614;47.576;7.524;2023-07-22T06:08:29;25.90;59.80
67817;DHT22;54614;47.576;7.524;2023-07-22T06:10:56;25.90;59.80
67817;DHT22;54614;47.576;7.524;2023-07-22T06:13:22;25.90;59.80
67817;DHT22;54614;47.576;7.524;2023-07-22T06:15:48;25.90;59.80
67817;DHT22;54614;47.576;7.524;2023-07-22T06:18:13;25.80;59.70
67817;DHT22;54614;47.576;7.524;2023-07-22T06:20:39;25.90;59.90
67817;DHT22;54614;47.576;7.524;2023-07-22T06:23:05;25.90;59.90
67817;DHT22;54614;47.576;7.524;2023-07-22T06:25:31;25.90;59.90
67817;DHT22;54614;47.576;7.524;2023-07-22T06:27:57;25.90;60.00
67817;DHT22;54614;47.576;7.524;2023-07-22T06:30:23;25.90;59.90
67817;DHT22;54614;47.576;7.524;2023-07-22T06:32:48;25.90;59.90
67817;DHT22;54614;47.576;7.524;2023-07-22T06:35:14;25.90;59.90
67817;DHT22;54614;47.576;7.524;2023-07-22T06:37:40;25.90;59.90
67817;DHT22;54614;47.576;7.524;2023-07-22T06:40:06;25.90;59.90
67817;DHT22;54614;47.576;7.524;2023-07-22T06:42:33;25.90;59.90
67817;DHT22;54614;47.576;7.524;2023-07-22T06:44:59;25.90;59.90
67817;DHT22;54614;47.576;7.524;2023-07-22T06:47:24;25.90;60.00
67817;DHT22;54614;47.576;7.524;2023-07-22T06:49:50;25.90;59.90
67817;DHT22;54614;47.576;7.524;2023-07-22T06:52:16;25.90;59.90
67817;DHT22;54614;47.576;7.524;2023-07-22T06:54:42;25.90;59.90
67817;DHT22;54614;47.576;7.524;2023-07-22T06:57:08;25.90;59.90
67817;DHT22;54614;47.576;7.524;2023-07-22T06:59:34;25.90;60.60
67817;DHT22;54614;47.576;7.524;2023-07-22T07:02:00;25.90;59.90
67817;DHT22;54614;47.576;7.524;2023-07-22T07:04:26;25.90;60.00
67817;DHT22;54614;47.576;7.524;2023-07-22T07:06:52;25.90;60.00
67817;DHT22;54614;47.576;7.524;2023-07-22T07:09:18;25.90;60.00
67817;DHT22;54614;47.576;7.524;2023-07-22T07:11:44;25.90;60.00
67817;DHT22;54614;47.576;7.524;2023-07-22T07:14:12;25.90;60.00
67817;DHT22;54614;47.576;7.524;2023-07-22T07:16:38;25.90;60.00
67817;DHT22;54614;47.576;7.524;2023-07-22T07:19:04;25.90;59.90
67817;DHT22;54614;47.576;7.524;2023-07-22T07:21:29;25.90;60.00
67817;DHT22;54614;47.576;7.524;2023-07-22T07:23:55;25.90;60.00
67817;DHT22;54614;47.576;7.524;2023-07-22T07:26:22;25.90;60.00
67817;DHT22;54614;47.576;7.524;2023-07-22T07:28:48;26.00;60.00
67817;DHT22;54614;47.576;7.524;2023-07-22T07:31:18;26.00;60.00
67817;DHT22;54614;47.576;7.524;2023-07-22T07:33:44;26.00;60.00
67817;DHT22;54614;47.576;7.524;2023-07-22T07:36:10;26.00;60.00
67817;DHT22;54614;47.576;7.524;2023-07-22T07:38:35;26.00;60.00
67817;DHT22;54614;47.576;7.524;2023-07-22T07:41:04;26.00;60.00
67817;DHT22;54614;47.576;7.524;2023-07-22T07:43:34;26.00;60.00
67817;DHT22;54614;47.576;7.524;2023-07-22T07:46:22;26.00;60.00
67817;DHT22;54614;47.576;7.524;2023-07-22T07:48:50;26.00;60.00
67817;DHT22;54614;47.576;7.524;2023-07-22T07:51:19;26.00;60.00
67817;DHT22;54614;47.576;7.524;2023-07-22T07:53:46;26.00;60.00
67817;DHT22;54614;47.576;7.524;2023-07-22T07:56:13;26.00;60.00
67817;DHT22;54614;47.576;7.524;2023-07-22T07:58:39;26.00;60.00
67817;DHT22;54614;47.576;7.524;2023-07-22T08:01:06;26.00;60.00
67817;DHT22;54614;47.576;7.524;2023-07-22T08:03:33;26.00;60.00
67817;DHT22;54614;47.576;7.524;2023-07-22T08:06:01;26.00;60.00
67817;DHT22;54614;47.576;7.524;2023-07-22T08:08:28;26.00;60.00
67817;DHT22;54614;47.576;7.524;2023-07-22T08:11:12;26.00;60.00
67817;DHT22;54614;47.576;7.524;2023-07-22T08:13:39;26.00;60.00
67817;DHT22;54614;47.576;7.524;2023-07-22T08:16:07;26.00;60.00
67817;DHT22;54614;47.576;7.524;2023-07-22T08:18:35;26.00;59.90
67817;DHT22;54614;47.576;7.524;2023-07-22T08:21:03;26.00;59.80
67817;DHT22;54614;47.576;7.524;2023-07-22T08:23:30;26.00;59.70
67817;DHT22;54614;47.576;7.524;2023-07-22T08:25:56;26.00;59.60
67817;DHT22;54614;47.576;7.524;2023-07-22T08:28:22;26.00;59.70
67817;DHT22;54614;47.576;7.524;2023-07-22T08:30:48;26.00;59.50
67817;DHT22;54614;47.576;7.524;2023-07-22T08:33:15;26.00;59.50
67817;DHT22;54614;47.576;7.524;2023-07-22T08:35:42;26.00;59.50
67817;DHT22;54614;47.576;7.524;2023-07-22T08:38:08;26.00;59.50
67817;DHT22;54614;47.576;7.524;2023-07-22T08:40:39;26.00;59.60
67817;DHT22;54614;47.576;7.524;2023-07-22T08:43:07;26.00;59.50
67817;DHT22;54614;47.576;7.524;2023-07-22T08:45:36;26.00;59.60
67817;DHT22;54614;47.576;7.524;2023-07-22T08:48:08;26.00;59.50
67817;DHT22;54614;47.576;7.524;2023-07-22T08:50:54;26.00;59.50
67817;DHT22;54614;47.576;7.524;2023-07-22T08:53:24;26.00;59.40
67817;DHT22;54614;47.576;7.524;2023-07-22T08:55:51;26.10;59.30
67817;DHT22;54614;47.576;7.524;2023-07-22T08:58:18;26.10;59.10
67817;DHT22;54614;47.576;7.524;2023-07-22T09:00:45;26.00;58.90
67817;DHT22;54614;47.576;7.524;2023-07-22T09:03:13;26.00;58.60
67817;DHT22;54614;47.576;7.524;2023-07-22T09:05:40;26.00;58.60
67817;DHT22;54614;47.576;7.524;2023-07-22T09:08:07;26.10;58.70
67817;DHT22;54614;47.576;7.524;2023-07-22T09:10:34;26.10;58.70
67817;DHT22;54614;47.576;7.524;2023-07-22T09:13:01;26.00;58.60
67817;DHT22;54614;47.576;7.524;2023-07-22T09:15:28;26.00;58.50
67817;DHT22;54614;47.576;7.524;2023-07-22T09:17:54;26.00;58.50
67817;DHT22;54614;47.576;7.524;2023-07-22T09:20:21;26.00;58.40
67817;DHT22;54614;47.576;7.524;2023-07-22T09:22:49;26.00;58.40
67817;DHT22;54614;47.576;7.524;2023-07-22T09:25:24;26.00;58.50
67817;DHT22;54614;47.576;7.524;2023-07-22T09:27:53;26.00;58.50
67817;DHT22;54614;47.576;7.524;2023-07-22T09:30:29;26.00;58.50
67817;DHT22;54614;47.576;7.524;2023-07-22T09:33:01;26.00;58.50
67817;DHT22;54614;47.576;7.524;2023-07-22T09:35:30;26.00;58.50
67817;DHT22;54614;47.576;7.524;2023-07-22T09:37:58;26.00;58.20
67817;DHT22;54614;47.576;7.524;2023-07-22T09:40:26;26.00;58.30
67817;DHT22;54614;47.576;7.524;2023-07-22T09:42:57;26.00;58.20
67817;DHT22;54614;47.576;7.524;2023-07-22T09:45:30;26.00;58.20
67817;DHT22;54614;47.576;7.524;2023-07-22T09:47:58;26.00;58.30
67817;DHT22;54614;47.576;7.524;2023-07-22T09:50:25;26.00;58.30
67817;DHT22;54614;47.576;7.524;2023-07-22T09:52:56;26.00;58.20
67817;DHT22;54614;47.576;7.524;2023-07-22T09:55:29;26.00;58.30
67817;DHT22;54614;47.576;7.524;2023-07-22T10:00:24;26.00;58.10
67817;DHT22;54614;47.576;7.524;2023-07-22T10:02:59;26.00;58.20
67817;DHT22;54614;47.576;7.524;2023-07-22T10:05:27;26.00;58.10
67817;DHT22;54614;47.576;7.524;2023-07-22T10:07:58;26.00;58.00
67817;DHT22;54614;47.576;7.524;2023-07-22T10:10:31;26.00;58.00
67817;DHT22;54614;47.576;7.524;2023-07-22T10:12:59;26.00;58.10
67817;DHT22;54614;47.576;7.524;2023-07-22T10:15:27;26.00;58.00
67817;DHT22;54614;47.576;7.524;2023-07-22T10:17:56;26.00;58.00
67817;DHT22;54614;47.576;7.524;2023-07-22T10:20:23;26.00;58.00
67817;DHT22;54614;47.576;7.524;2023-07-22T10:22:50;26.00;58.00
67817;DHT22;54614;47.576;7.524;2023-07-22T10:25:20;26.00;58.00
67817;DHT22;54614;47.576;7.524;2023-07-22T10:27:49;26.00;58.10
67817;DHT22;54614;47.576;7.524;2023-07-22T10:30:18;26.00;57.90
67817;DHT22;54614;47.576;7.524;2023-07-22T10:32:47;26.00;58.10
67817;DHT22;54614;47.576;7.524;2023-07-22T10:37:56;26.00;57.90
67817;DHT22;54614;47.576;7.524;2023-07-22T10:40:32;26.00;58.10
67817;DHT22;54614;47.576;7.524;2023-07-22T10:43:04;26.00;58.60
67817;DHT22;54614;47.576;7.524;2023-07-22T10:45:40;26.00;58.80
67817;DHT22;54614;47.576;7.524;2023-07-22T10:48:09;25.90;58.80
67817;DHT22;54614;47.576;7.524;2023-07-22T10:50:45;26.00;58.90
67817;DHT22;54614;47.576;7.524;2023-07-22T11:11:54;26.00;59.10
67817;DHT22;54614;47.576;7.524;2023-07-22T11:14:51;26.00;59.20
67817;DHT22;54614;47.576;7.524;2023-07-22T11:17:31;26.00;59.20
67817;DHT22;54614;47.576;7.524;2023-07-22T11:19:59;26.00;59.20
67817;DHT22;54614;47.576;7.524;2023-07-22T11:22:26;26.00;59.20
67817;DHT22;54614;47.576;7.524;2023-07-22T11:24:55;26.00;59.30
67817;DHT22;54614;47.576;7.524;2023-07-22T11:27:23;26.00;59.30
67817;DHT22;54614;47.576;7.524;2023-07-22T11:29:49;26.00;59.30
67817;DHT22;54614;47.576;7.524;2023-07-22T11:32:19;26.00;59.30
67817;DHT22;54614;47.576;7.524;2023-07-22T11:34:51;26.00;59.30
67817;DHT22;54614;47.576;7.524;2023-07-22T11:37:21;26.00;60.00
67817;DHT22;54614;47.576;7.524;2023-07-22T11:39:46;26.00;59.40
67817;DHT22;54614;47.576;7.524;2023-07-22T11:42:12;26.00;59.50
67817;DHT22;54614;47.576;7.524;2023-07-22T11:44:38;26.00;59.50
67817;DHT22;54614;47.576;7.524;2023-07-22T11:47:06;26.00;59.50
67817;DHT22;54614;47.576;7.524;2023-07-22T11:49:39;26.00;59.50
67817;DHT22;54614;47.576;7.524;2023-07-22T11:52:11;26.00;59.50
67817;DHT22;54614;47.576;7.524;2023-07-22T11:54:44;26.00;59.50
67817;DHT22;54614;47.576;7.524;2023-07-22T11:57:22;26.00;59.50
67817;DHT22;54614;47.576;7.524;2023-07-22T11:59:54;26.00;59.50
67817;DHT22;54614;47.576;7.524;2023-07-22T12:02:26;26.00;59.50
67817;DHT22;54614;47.576;7.524;2023-07-22T12:05:03;26.00;59.60
67817;DHT22;54614;47.576;7.524;2023-07-22T12:07:35;26.00;59.50
67817;DHT22;54614;47.576;7.524;2023-07-22T12:10:06;26.00;59.50
67817;DHT22;54614;47.576;7.524;2023-07-22T12:15:18;26.00;59.60
67817;DHT22;54614;47.576;7.524;2023-07-22T12:17:58;26.00;59.60
67817;DHT22;54614;47.576;7.524;2023-07-22T12:20:30;26.00;59.60
67817;DHT22;54614;47.576;7.524;2023-07-22T12:22:58;26.00;59.60
67817;DHT22;54614;47.576;7.524;2023-07-22T12:25:24;26.00;59.60
67817;DHT22;54614;47.576;7.524;2023-07-22T12:27:50;26.00;59.70
67817;DHT22;54614;47.576;7.524;2023-07-22T12:30:16;26.00;59.60
67817;DHT22;54614;47.576;7.524;2023-07-22T12:32:43;26.00;59.60
67817;DHT22;54614;47.576;7.524;2023-07-22T12:35:09;26.00;59.60
67817;DHT22;54614;47.576;7.524;2023-07-22T12:37:35;26.00;59.70
67817;DHT22;54614;47.576;7.524;2023-07-22T12:40:02;26.00;59.70
67817;DHT22;54614;47.576;7.524;2023-07-22T12:42:36;26.00;59.60
67817;DHT22;54614;47.576;7.524;2023-07-22T12:45:06;26.00;59.60
67817;DHT22;54614;47.576;7.524;2023-07-22T12:47:33;26.00;59.70
67817;DHT22;54614;47.576;7.524;2023-07-22T12:49:59;26.00;59.80
67817;DHT22;54614;47.576;7.524;2023-07-22T12:52:24;26.00;59.80
67817;DHT22;54614;47.576;7.524;2023-07-22T12:54:50;26.00;59.80
67817;DHT22;54614;47.576;7.524;2023-07-22T12:57:16;26.00;59.80
67817;DHT22;54614;47.576;7.524;2023-07-22T12:59:42;26.00;59.80
67817;DHT22;54614;47.576;7.524;2023-07-22T13:02:07;26.00;59.80
67817;DHT22;54614;47.576;7.524;2023-07-22T13:04:33;26.00;59.80
67817;DHT22;54614;47.576;7.524;2023-07-22T13:06:59;26.00;59.80
67817;DHT22;54614;47.576;7.524;2023-07-22T13:09:24;26.00;59.90
67817;DHT22;54614;47.576;7.524;2023-07-22T13:11:50;26.00;59.80
67817;DHT22;54614;47.576;7.524;2023-07-22T13:14:16;26.00;59.80
67817;DHT22;54614;47.576;7.524;2023-07-22T13:16:43;26.00;59.80
67817;DHT22;54614;47.576;7.524;2023-07-22T13:19:09;26.00;59.90
67817;DHT22;54614;47.576;7.524;2023-07-22T13:21:35;26.00;59.90
67817;DHT22;54614;47.576;7.524;2023-07-22T13:24:01;26.00;59.90
67817;DHT22;54614;47.576;7.524;2023-07-22T13:26:26;26.00;59.90
67817;DHT22;54614;47.576;7.524;2023-07-22T13:28:52;26.00;59.90
67817;DHT22;54614;47.576;7.524;2023-07-22T13:31:19;26.00;59.90
67817;DHT22;54614;47.576;7.524;2023-07-22T13:33:45;26.00;59.90
67817;DHT22;54614;47.576;7.524;2023-07-22T13:36:11;26.00;59.90
67817;DHT22;54614;47.576;7.524;2023-07-22T13:38:36;26.00;60.00
67817;DHT22;54614;47.576;7.524;2023-07-22T13:41:02;26.00;60.00
67817;DHT22;54614;47.576;7.524;2023-07-22T13:43:28;26.00;59.90
67817;DHT22;54614;47.576;7.524;2023-07-22T13:45:54;26.00;59.90
67817;DHT22;54614;47.576;7.524;2023-07-22T13:48:20;26.00;60.00
67817;DHT22;54614;47.576;7.524;2023-07-22T13:50:46;26.00;60.00
67817;DHT22;54614;47.576;7.524;2023-07-22T13:53:12;26.00;60.00
67817;DHT22;54614;47.576;7.524;2023-07-22T13:55:37;26.00;60.00
67817;DHT22;54614;47.576;7.524;2023-07-22T13:58:03;26.00;60.00
67817;DHT22;54614;47.576;7.524;2023-07-22T14:00:29;26.00;60.00
67817;DHT22;54614;47.576;7.524;2023-07-22T14:02:55;26.00;60.00
67817;DHT22;54614;47.576;7.524;2023-07-22T14:05:22;26.00;60.00
67817;DHT22;54614;47.576;7.524;2023-07-22T14:07:48;26.00;60.00
67817;DHT22;54614;47.576;7.524;2023-07-22T14:10:14;26.00;60.00
67817;DHT22;54614;47.576;7.524;2023-07-22T14:12:39;26.00;60.00
67817;DHT22;54614;47.576;7.524;2023-07-22T14:15:06;26.10;60.10
67817;DHT22;54614;47.576;7.524;2023-07-22T14:17:32;26.00;60.00
67817;DHT22;54614;47.576;7.524;2023-07-22T14:19:58;26.00;60.00
67817;DHT22;54614;47.576;7.524;2023-07-22T14:22:24;26.10;60.00
67817;DHT22;54614;47.576;7.524;2023-07-22T14:24:50;26.00;60.00
67817;DHT22;54614;47.576;7.524;2023-07-22T14:27:16;26.00;60.00
67817;DHT22;54614;47.576;7.524;2023-07-22T14:29:42;26.00;60.00
67817;DHT22;54614;47.576;7.524;2023-07-22T14:32:08;26.00;60.00
67817;DHT22;54614;47.576;7.524;2023-07-22T14:34:34;26.10;60.10
67817;DHT22;54614;47.576;7.524;2023-07-22T14:37:00;26.10;60.10
67817;DHT22;54614;47.576;7.524;2023-07-22T14:39:26;26.10;60.00
67817;DHT22;54614;47.576;7.524;2023-07-22T14:41:51;26.00;60.00
67817;DHT22;54614;47.576;7.524;2023-07-22T14:44:18;26.00;60.00
67817;DHT22;54614;47.576;7.524;2023-07-22T14:46:44;26.00;60.00
67817;DHT22;54614;47.576;7.524;2023-07-22T14:49:10;26.00;60.00
67817;DHT22;54614;47.576;7.524;2023-07-22T14:51:36;26.00;60.00
67817;DHT22;54614;47.576;7.524;2023-07-22T14:54:02;26.00;60.00
67817;DHT22;54614;47.576;7.524;2023-07-22T14:56:28;26.00;60.00
67817;DHT22;54614;47.576;7.524;2023-07-22T14:58:54;26.00;60.00
67817;DHT22;54614;47.576;7.524;2023-07-22T15:01:21;26.00;60.00
67817;DHT22;54614;47.576;7.524;2023-07-22T15:03:47;26.00;60.00
67817;DHT22;54614;47.576;7.524;2023-07-22T15:06:13;26.00;60.00
67817;DHT22;54614;47.576;7.524;2023-07-22T15:08:39;26.00;60.00
67817;DHT22;54614;47.576;7.524;2023-07-22T15:11:05;26.00;60.10
67817;DHT22;54614;47.576;7.524;2023-07-22T15:13:31;26.00;60.20
67817;DHT22;54614;47.576;7.524;2023-07-22T15:15:56;26.00;60.10
67817;DHT22;54614;47.576;7.524;2023-07-22T15:18:23;26.00;60.10
67817;DHT22;54614;47.576;7.524;2023-07-22T15:20:52;26.00;60.10
67817;DHT22;54614;47.576;7.524;2023-07-22T15:23:18;26.10;60.10
67817;DHT22;54614;47.576;7.524;2023-07-22T15:25:44;26.00;60.20
67817;DHT22;54614;47.576;7.524;2023-07-22T15:28:10;26.10;60.10
67817;DHT22;54614;47.576;7.524;2023-07-22T15:30:36;26.10;60.20
67817;DHT22;54614;47.576;7.524;2023-07-22T15:33:02;26.10;60.10
67817;DHT22;54614;47.576;7.524;2023-07-22T15:35:28;26.10;60.10
67817;DHT22;54614;47.576;7.524;2023-07-22T15:37:53;26.10;60.10
67817;DHT22;54614;47.576;7.524;2023-07-22T15:40:20;26.10;60.20
67817;DHT22;54614;47.576;7.524;2023-07-22T15:42:46;26.10;60.20
67817;DHT22;54614;47.576;7.524;2023-07-22T15:45:12;26.10;60.10
67817;DHT22;54614;47.576;7.524;2023-07-22T15:47:37;26.10;60.10
67817;DHT22;54614;47.576;7.524;2023-07-22T15:50:03;26.10;60.10
67817;DHT22;54614;47.576;7.524;2023-07-22T15:52:30;26.10;60.20
67817;DHT22;54614;47.576;7.524;2023-07-22T15:54:56;26.00;60.20
67817;DHT22;54614;47.576;7.524;2023-07-22T15:57:22;26.10;60.20